Time;durP1;ratioP1;P1;durP2;ratioP2;P2;SDS_P1;SDS_P2;PMS_P1;PMS_P2;Temp;Humidity;BMP_temperature;BMP_pressure;BME280_temperature;BME280_humidity;BME280_pressure;Samples;Min_cycle;Max_cycle;Signal;HPM_P1;HPM_P2
2020/12/09 00:00:43;;;;;;;36.13;15.53;;;1.10;99.90;;;;;;2081035;28;20682;-62
2020/12/09 00:01:46;;;;;;;29.95;12.60;;;1.10;99.90;;;;;;2081114;28;20173;-63
2020/12/09 00:02:46;;;;;;;28.75;12.25;;;1.20;99.90;;;;;;2081206;28;20189;-63
2020/12/09 00:03:47;;;;;;;30.33;13.07;;;1.20;99.90;;;;;;2081305;28;20522;-63
2020/12/09 00:04:48;;;;;;;33.80;13.63;;;1.20;99.90;;;;;;2081165;28;20193;-63
2020/12/09 00:05:49;;;;;;;31.73;13.83;;;1.20;99.90;;;;;;2081325;28;20323;-63
2020/12/09 00:06:50;;;;;;;30.53;14.20;;;1.20;99.90;;;;;;2081036;28;20169;-63
2020/12/09 00:07:51;;;;;;;30.52;12.93;;;1.20;99.90;;;;;;2081201;28;20181;-63
2020/12/09 00:08:52;;;;;;;29.07;13.93;;;1.20;99.90;;;;;;2081102;28;20268;-63
2020/12/09 00:09:52;;;;;;;28.33;12.87;;;1.20;99.90;;;;;;2081255;28;20284;-63
2020/12/09 00:10:53;;;;;;;31.30;13.20;;;1.20;99.90;;;;;;2080902;28;20223;-63
2020/12/09 00:11:54;;;;;;;29.50;13.23;;;1.20;99.90;;;;;;2081054;28;20188;-61
2020/12/09 00:12:55;;;;;;;35.97;15.85;;;1.20;99.90;;;;;;2081011;28;20677;-63
2020/12/09 00:13:56;;;;;;;30.07;13.90;;;1.20;99.90;;;;;;2081262;28;20199;-63
2020/12/09 00:14:58;;;;;;;34.83;14.90;;;1.20;99.90;;;;;;2081070;28;20242;-63
2020/12/09 00:15:59;;;;;;;35.47;15.38;;;1.20;99.90;;;;;;2081244;28;20212;-63
2020/12/09 00:16:59;;;;;;;26.77;13.20;;;1.20;99.90;;;;;;2080925;28;20559;-63
2020/12/09 00:18:00;;;;;;;28.37;13.33;;;1.20;99.90;;;;;;2081073;28;20233;-63
2020/12/09 00:19:04;;;;;;;28.87;12.83;;;1.20;99.90;;;;;;2081085;28;20181;-63
2020/12/09 00:20:05;;;;;;;30.50;13.50;;;1.20;99.90;;;;;;2081223;28;20191;-63
2020/12/09 00:21:06;;;;;;;34.00;14.85;;;1.20;99.90;;;;;;2081118;28;20263;-63
2020/12/09 00:22:08;;;;;;;30.00;14.03;;;1.20;99.90;;;;;;2081261;28;20710;-63
2020/12/09 00:23:09;;;;;;;28.85;13.77;;;1.20;99.90;;;;;;2080723;28;20204;-62
2020/12/09 00:24:09;;;;;;;28.13;13.03;;;1.30;99.90;;;;;;2081013;28;20177;-63
2020/12/09 00:25:10;;;;;;;31.90;13.80;;;1.30;99.90;;;;;;2080871;28;20886;-63
2020/12/09 00:26:11;;;;;;;30.33;13.17;;;1.30;99.90;;;;;;2081181;28;20173;-63
2020/12/09 00:27:12;;;;;;;32.72;14.30;;;1.20;99.90;;;;;;2081009;28;20177;-63
2020/12/09 00:28:12;;;;;;;36.73;13.63;;;1.20;99.90;;;;;;2080974;28;20202;-64
2020/12/09 00:29:13;;;;;;;37.83;14.97;;;1.20;99.90;;;;;;2080909;28;20193;-63
2020/12/09 00:30:14;;;;;;;32.63;13.93;;;1.20;99.90;;;;;;2081120;28;20187;-63
2020/12/09 00:31:22;;;;;;;41.47;15.38;;;1.20;99.90;;;;;;2080809;28;20427;-63
2020/12/09 00:32:23;;;;;;;44.58;15.60;;;1.10;99.90;;;;;;2081194;28;20652;-62
2020/12/09 00:33:23;;;;;;;38.57;15.03;;;1.10;99.90;;;;;;2080925;28;20190;-62
2020/12/09 00:34:24;;;;;;;43.93;15.33;;;1.10;99.90;;;;;;2081080;28;20185;-63
2020/12/09 00:35:25;;;;;;;41.33;16.10;;;1.00;99.90;;;;;;2080942;28;20207;-63
2020/12/09 00:36:25;;;;;;;36.97;15.30;;;1.00;99.90;;;;;;2081111;28;20546;-62
2020/12/09 00:37:26;;;;;;;31.73;14.27;;;1.00;99.90;;;;;;2080932;28;20271;-63
2020/12/09 00:38:27;;;;;;;36.07;15.63;;;1.00;99.90;;;;;;2080913;28;20211;-63
2020/12/09 00:39:27;;;;;;;38.80;14.27;;;1.00;99.90;;;;;;2080852;28;20852;-63
2020/12/09 00:40:28;;;;;;;36.87;14.40;;;1.00;99.90;;;;;;2080944;28;20184;-63
2020/12/09 00:41:29;;;;;;;37.80;15.10;;;1.00;99.90;;;;;;2080881;28;20188;-63
2020/12/09 00:42:31;;;;;;;38.97;15.82;;;1.00;99.90;;;;;;2080942;28;20243;-63
2020/12/09 00:43:32;;;;;;;36.22;14.77;;;0.90;99.90;;;;;;2080997;28;20242;-63
2020/12/09 00:44:33;;;;;;;45.57;15.97;;;0.90;99.90;;;;;;2080673;28;20599;-63
2020/12/09 00:45:33;;;;;;;41.37;15.20;;;0.90;99.90;;;;;;2080986;28;20181;-63
2020/12/09 00:46:34;;;;;;;45.13;17.17;;;1.00;99.90;;;;;;2080948;28;20180;-63
2020/12/09 00:47:39;;;;;;;39.13;15.70;;;1.00;99.90;;;;;;2081034;28;20179;-63
2020/12/09 00:48:40;;;;;;;39.35;15.90;;;1.00;99.90;;;;;;2080967;28;20173;-63
2020/12/09 00:51:00;;;;;;;42.25;15.48;;;1.00;99.90;;;;;;2080795;28;20161;-63
2020/12/09 00:52:00;;;;;;;42.40;15.50;;;1.00;99.90;;;;;;2080850;28;20177;-63
2020/12/09 00:53:01;;;;;;;38.30;15.97;;;1.00;99.90;;;;;;2080884;28;20284;-63
2020/12/09 00:54:02;;;;;;;47.03;16.83;;;1.00;99.90;;;;;;2080213;28;20270;-63
2020/12/09 00:55:03;;;;;;;39.03;15.07;;;1.00;99.90;;;;;;2080056;28;20203;-63
2020/12/09 00:56:07;;;;;;;37.88;15.90;;;1.00;99.90;;;;;;2080756;28;20593;-63
2020/12/09 00:57:08;;;;;;;45.33;16.42;;;1.00;99.90;;;;;;2080912;28;20192;-63
2020/12/09 00:58:08;;;;;;;46.67;17.07;;;1.00;99.90;;;;;;2080782;28;20303;-62
2020/12/09 00:59:10;;;;;;;49.10;16.33;;;1.00;99.90;;;;;;2080671;28;20306;-63
2020/12/09 01:00:11;;;;;;;42.45;16.13;;;0.90;99.90;;;;;;2080932;28;20184;-63
2020/12/09 01:01:12;;;;;;;39.08;16.50;;;1.00;99.90;;;;;;2079720;28;20226;-63
2020/12/09 01:02:13;;;;;;;40.03;15.80;;;1.00;99.90;;;;;;2080181;28;20176;-63
2020/12/09 01:03:13;;;;;;;40.93;15.30;;;1.00;99.90;;;;;;2080792;28;20188;-63
2020/12/09 01:04:14;;;;;;;38.37;15.33;;;1.00;99.90;;;;;;2080812;28;20335;-63
2020/12/09 01:05:15;;;;;;;46.43;16.97;;;1.00;99.90;;;;;;2080663;28;20535;-63
2020/12/09 01:06:16;;;;;;;40.03;15.97;;;1.00;99.90;;;;;;2080760;28;20183;-63
2020/12/09 01:07:17;;;;;;;45.93;16.97;;;1.10;99.90;;;;;;2080673;28;20788;-63
2020/12/09 01:08:18;;;;;;;40.90;16.52;;;1.10;99.90;;;;;;2080809;28;20275;-63
2020/12/09 01:09:19;;;;;;;41.67;15.70;;;1.10;99.90;;;;;;2080760;28;20185;-62
2020/12/09 01:10:19;;;;;;;39.10;16.13;;;1.10;99.90;;;;;;2080827;28;20199;-63
2020/12/09 01:11:23;;;;;;;45.50;16.47;;;1.10;99.90;;;;;;2079979;28;20557;-63
2020/12/09 01:12:24;;;;;;;37.33;15.50;;;1.10;99.90;;;;;;2080367;28;20651;-63
2020/12/09 01:13:25;;;;;;;43.33;16.65;;;1.10;99.90;;;;;;2080790;28;20703;-63
2020/12/09 01:14:26;;;;;;;53.50;17.60;;;1.10;99.90;;;;;;2081052;28;20190;-63
2020/12/09 01:15:26;;;;;;;48.60;16.37;;;1.10;99.90;;;;;;2080822;28;20852;-63
2020/12/09 01:16:27;;;;;;;63.07;18.60;;;1.10;99.90;;;;;;2080974;28;20187;-63
2020/12/09 01:17:28;;;;;;;49.60;18.27;;;1.10;99.90;;;;;;2080702;28;20188;-63
2020/12/09 01:18:28;;;;;;;54.97;18.23;;;1.10;99.90;;;;;;2080869;28;20217;-63
2020/12/09 01:19:29;;;;;;;48.67;16.90;;;1.10;99.90;;;;;;2080766;28;20173;-63
2020/12/09 01:20:30;;;;;;;60.40;20.93;;;1.10;99.90;;;;;;2080821;28;20239;-63
2020/12/09 01:21:30;;;;;;;46.03;17.50;;;1.10;99.90;;;;;;2080536;28;20185;-63
2020/12/09 01:22:31;;;;;;;47.70;17.37;;;1.10;99.90;;;;;;2080576;28;20173;-62
2020/12/09 01:23:32;;;;;;;59.08;18.35;;;1.10;99.90;;;;;;2080470;28;20599;-63
2020/12/09 01:24:33;;;;;;;45.57;17.90;;;1.10;99.90;;;;;;2080304;28;20181;-63
2020/12/09 01:25:34;;;;;;;52.55;17.08;;;1.10;99.90;;;;;;2080606;28;20170;-63
2020/12/09 01:26:34;;;;;;;44.97;17.13;;;1.10;99.90;;;;;;2080696;28;20266;-63
2020/12/09 01:27:35;;;;;;;45.90;16.70;;;1.10;99.90;;;;;;2080647;28;20176;-63
2020/12/09 01:28:36;;;;;;;44.13;16.10;;;1.10;99.90;;;;;;2080604;28;20181;-63
2020/12/09 01:29:37;;;;;;;45.20;17.15;;;1.10;99.90;;;;;;2080525;28;20719;-63
2020/12/09 01:30:38;;;;;;;43.87;17.80;;;1.10;99.90;;;;;;2080061;28;20272;-63
2020/12/09 01:31:38;;;;;;;47.20;17.07;;;1.10;99.90;;;;;;2079694;28;20207;-63
2020/12/09 01:32:39;;;;;;;43.43;16.83;;;1.10;99.90;;;;;;2080637;28;20176;-63
2020/12/09 01:33:40;;;;;;;47.83;17.73;;;1.10;99.90;;;;;;2080376;28;20553;-63
2020/12/09 01:34:40;;;;;;;40.40;17.03;;;1.10;99.90;;;;;;2080572;28;20177;-63
2020/12/09 01:35:41;;;;;;;43.10;17.13;;;1.10;99.90;;;;;;2080608;28;20188;-63
2020/12/09 01:36:42;;;;;;;41.73;17.43;;;1.10;99.90;;;;;;2080537;28;20291;-63
2020/12/09 01:37:42;;;;;;;38.23;15.30;;;1.20;99.90;;;;;;2080608;28;20295;-61
2020/12/09 01:38:43;;;;;;;30.73;15.03;;;1.20;99.90;;;;;;2080672;28;20276;-63
2020/12/09 01:39:44;;;;;;;44.20;17.53;;;1.20;99.90;;;;;;2080636;28;20188;-64
2020/12/09 01:40:44;;;;;;;37.10;14.90;;;1.20;99.90;;;;;;2079632;28;20321;-63
2020/12/09 01:41:46;;;;;;;38.30;15.43;;;1.20;99.90;;;;;;2076505;28;20184;-63
2020/12/09 01:42:50;;;;;;;41.88;16.08;;;1.20;99.90;;;;;;2080672;28;20203;-63
2020/12/09 01:43:53;;;;;;;36.17;14.95;;;1.20;99.90;;;;;;2080798;28;20187;-64
2020/12/09 01:44:54;;;;;;;45.08;16.15;;;1.20;99.90;;;;;;2080502;28;20204;-63
2020/12/09 01:45:54;;;;;;;40.87;16.57;;;1.30;99.90;;;;;;2080828;28;20614;-63
2020/12/09 01:46:57;;;;;;;35.93;15.30;;;1.30;99.90;;;;;;2080499;28;20266;-61
2020/12/09 01:47:57;;;;;;;33.70;14.60;;;1.30;99.90;;;;;;2080043;28;20177;-62
2020/12/09 01:49:02;;;;;;;43.50;16.87;;;1.30;99.90;;;;;;2079911;28;20593;-63
2020/12/09 01:50:03;;;;;;;34.75;14.88;;;1.20;99.90;;;;;;2080534;28;20288;-63
2020/12/09 01:51:03;;;;;;;41.03;16.30;;;1.20;99.90;;;;;;2079593;28;20199;-63
2020/12/09 01:52:05;;;;;;;41.67;16.27;;;1.20;99.90;;;;;;2071859;28;20215;-63
2020/12/09 01:53:06;;;;;;;38.97;16.30;;;1.20;99.90;;;;;;2079802;28;20666;-62
2020/12/09 01:54:07;;;;;;;35.15;15.85;;;1.20;99.90;;;;;;2080655;28;20185;-63
2020/12/09 01:55:08;;;;;;;34.77;16.07;;;1.20;99.90;;;;;;2080380;28;20694;-63
2020/12/09 01:56:09;;;;;;;38.72;16.42;;;1.20;99.90;;;;;;2080400;28;20185;-63
2020/12/09 01:57:12;;;;;;;35.23;14.10;;;1.20;99.90;;;;;;2080452;28;20822;-63
2020/12/09 01:58:12;;;;;;;33.08;14.68;;;1.20;99.90;;;;;;2080623;28;20205;-63
2020/12/09 01:59:13;;;;;;;35.17;14.03;;;1.20;99.90;;;;;;2080498;28;20231;-63
2020/12/09 02:00:14;;;;;;;35.87;15.43;;;1.10;99.90;;;;;;2080605;28;20183;-63
2020/12/09 02:01:15;;;;;;;30.70;14.50;;;1.20;99.90;;;;;;2079548;28;20214;-64
2020/12/09 02:02:16;;;;;;;34.63;15.60;;;1.10;99.90;;;;;;2071961;28;20732;-62
2020/12/09 02:03:17;;;;;;;32.83;14.70;;;1.10;99.90;;;;;;2072245;28;20193;-62
2020/12/09 02:04:18;;;;;;;40.50;16.47;;;1.20;99.90;;;;;;2072166;28;20228;-62
2020/12/09 02:05:18;;;;;;;35.57;15.53;;;1.20;99.90;;;;;;2072066;28;20209;-62
2020/12/09 02:06:20;;;;;;;51.27;17.37;;;1.20;99.90;;;;;;2071607;28;20242;-62
2020/12/09 02:07:22;;;;;;;35.03;14.80;;;1.20;99.90;;;;;;2071448;28;20703;-62
2020/12/09 02:08:23;;;;;;;34.80;13.88;;;1.20;99.90;;;;;;2074598;28;20193;-62
2020/12/09 02:09:25;;;;;;;42.43;15.47;;;1.20;99.90;;;;;;2072175;28;20633;-62
2020/12/09 02:10:25;;;;;;;33.67;13.05;;;1.20;99.90;;;;;;2072269;28;20759;-62
2020/12/09 02:11:26;;;;;;;34.83;15.30;;;1.20;99.90;;;;;;2072082;28;20279;-62
2020/12/09 02:12:27;;;;;;;36.80;14.43;;;1.20;99.90;;;;;;2072243;28;20261;-61
2020/12/09 02:13:29;;;;;;;35.88;14.73;;;1.20;99.90;;;;;;2072287;28;20216;-62
2020/12/09 02:14:30;;;;;;;46.53;15.90;;;1.20;99.90;;;;;;2072292;28;20232;-62
2020/12/09 02:15:31;;;;;;;36.17;15.00;;;1.20;99.90;;;;;;2071549;28;20708;-62
2020/12/09 02:16:31;;;;;;;49.00;15.17;;;1.20;99.90;;;;;;2071643;28;20178;-61
2020/12/09 02:17:32;;;;;;;35.60;14.17;;;1.30;99.90;;;;;;2072098;28;20777;-62
2020/12/09 02:18:33;;;;;;;42.40;16.00;;;1.20;99.90;;;;;;2072199;28;20258;-62
2020/12/09 02:19:34;;;;;;;50.00;16.53;;;1.30;99.90;;;;;;2072141;28;20718;-62
2020/12/09 02:20:34;;;;;;;69.43;17.77;;;1.30;99.90;;;;;;2072267;28;20756;-62
2020/12/09 02:21:36;;;;;;;45.77;15.70;;;1.30;99.90;;;;;;2071360;28;20189;-62
2020/12/09 02:22:36;;;;;;;55.17;16.92;;;1.10;99.90;;;;;;2071521;28;20189;-62
2020/12/09 02:23:37;;;;;;;50.37;15.37;;;1.10;99.90;;;;;;2073582;28;20193;-62
2020/12/09 02:24:39;;;;;;;46.33;14.87;;;1.10;99.90;;;;;;2073610;28;20353;-61
2020/12/09 02:25:39;;;;;;;54.28;15.93;;;1.00;99.90;;;;;;2073842;28;20231;-62
2020/12/09 02:26:42;;;;;;;66.37;18.00;;;1.00;99.90;;;;;;2073661;28;20240;-61
2020/12/09 02:27:43;;;;;;;56.63;17.20;;;1.00;99.90;;;;;;2073792;28;20495;-62
2020/12/09 02:28:44;;;;;;;47.67;16.33;;;1.00;99.90;;;;;;2073518;28;20185;-62
2020/12/09 02:29:44;;;;;;;69.87;19.83;;;1.10;99.90;;;;;;2073782;28;20181;-62
2020/12/09 02:30:45;;;;;;;42.40;16.50;;;1.10;99.90;;;;;;2073569;28;20174;-62
2020/12/09 02:31:46;;;;;;;48.07;16.83;;;1.10;99.90;;;;;;2073613;28;20194;-61
2020/12/09 02:32:46;;;;;;;44.07;15.37;;;1.10;99.90;;;;;;2073672;28;20310;-62
2020/12/09 02:33:47;;;;;;;51.53;16.23;;;1.10;99.90;;;;;;2073725;28;20221;-61
2020/12/09 02:34:48;;;;;;;64.10;18.03;;;1.10;99.90;;;;;;2073398;28;20203;-61
2020/12/09 02:35:49;;;;;;;46.07;15.93;;;1.20;99.90;;;;;;2073805;28;20264;-62
2020/12/09 02:36:49;;;;;;;54.43;17.27;;;1.20;99.90;;;;;;2073636;28;20174;-62
2020/12/09 02:37:53;;;;;;;42.70;14.03;;;1.20;99.90;;;;;;2073593;28;20184;-62
2020/12/09 02:38:54;;;;;;;44.00;14.90;;;1.20;99.90;;;;;;2073672;28;20200;-62
2020/12/09 02:39:55;;;;;;;43.80;14.80;;;1.10;99.90;;;;;;2073526;28;20177;-62
2020/12/09 02:40:56;;;;;;;54.20;15.50;;;1.10;99.90;;;;;;2073399;28;20201;-62
2020/12/09 02:41:57;;;;;;;43.17;16.07;;;1.10;99.90;;;;;;2073684;28;20196;-61
2020/12/09 02:42:57;;;;;;;39.05;14.63;;;1.10;99.90;;;;;;2074657;28;20689;-60
2020/12/09 02:43:59;;;;;;;48.83;15.50;;;1.10;99.90;;;;;;2075242;28;20186;-62
2020/12/09 02:44:59;;;;;;;48.65;14.77;;;1.10;99.90;;;;;;2074177;28;20193;-62
2020/12/09 02:46:02;;;;;;;38.43;14.17;;;1.20;99.90;;;;;;2074871;28;20596;-62
2020/12/09 02:47:02;;;;;;;53.58;15.38;;;1.10;99.90;;;;;;2074583;28;20689;-62
2020/12/09 02:48:03;;;;;;;49.03;15.70;;;1.10;99.90;;;;;;2074023;28;20247;-62
2020/12/09 02:49:04;;;;;;;52.40;16.07;;;1.10;99.90;;;;;;2073655;28;20220;-62
2020/12/09 02:50:04;;;;;;;81.73;17.17;;;1.10;99.90;;;;;;2073736;28;20184;-62
2020/12/09 02:51:05;;;;;;;50.17;15.57;;;1.10;99.90;;;;;;2073182;28;20189;-61
2020/12/09 02:52:06;;;;;;;54.43;15.93;;;1.20;99.90;;;;;;2073767;28;20219;-60
2020/12/09 02:53:06;;;;;;;43.53;15.10;;;1.10;99.90;;;;;;2073645;28;20667;-61
2020/12/09 02:54:07;;;;;;;49.97;16.97;;;1.10;99.90;;;;;;2073757;28;20208;-62
2020/12/09 02:55:08;;;;;;;54.73;16.47;;;1.10;99.90;;;;;;2073695;28;20196;-61
2020/12/09 02:56:09;;;;;;;49.60;16.43;;;1.10;99.90;;;;;;2073749;28;20184;-61
2020/12/09 02:57:09;;;;;;;44.37;15.43;;;1.10;99.90;;;;;;2073858;28;20628;-61
2020/12/09 02:58:10;;;;;;;42.73;15.37;;;1.00;99.90;;;;;;2073690;28;20204;-62
2020/12/09 02:59:11;;;;;;;60.47;16.83;;;1.00;99.90;;;;;;2073404;28;20265;-62
2020/12/09 03:00:11;;;;;;;42.33;14.63;;;1.10;99.90;;;;;;2073415;28;20664;-61
2020/12/09 03:01:12;;;;;;;59.23;16.07;;;1.10;99.90;;;;;;2073166;28;20192;-62
2020/12/09 03:02:13;;;;;;;90.27;19.57;;;1.10;99.90;;;;;;2073392;28;20186;-62
2020/12/09 03:03:13;;;;;;;95.57;19.80;;;1.10;99.90;;;;;;2073450;28;20204;-61
2020/12/09 03:04:14;;;;;;;84.27;19.27;;;1.10;99.90;;;;;;2073453;28;20306;-61
2020/12/09 03:05:15;;;;;;;92.40;18.93;;;1.00;99.90;;;;;;2073404;28;20682;-62
2020/12/09 03:06:15;;;;;;;162.13;25.73;;;1.00;99.90;;;;;;2073400;28;20620;-62
2020/12/09 03:07:16;;;;;;;143.37;23.70;;;1.00;99.90;;;;;;2073385;28;20208;-61
2020/12/09 03:08:17;;;;;;;118.50;21.50;;;1.00;99.90;;;;;;2073319;28;20250;-62
2020/12/09 03:09:18;;;;;;;103.77;19.23;;;1.00;99.90;;;;;;2073443;28;20184;-62
2020/12/09 03:10:20;;;;;;;98.40;19.42;;;1.00;99.90;;;;;;2073313;28;20186;-61
2020/12/09 03:11:20;;;;;;;107.47;18.75;;;0.90;99.90;;;;;;2073209;28;20592;-62
2020/12/09 03:12:21;;;;;;;184.60;23.93;;;0.90;99.90;;;;;;2073069;28;20178;-62
2020/12/09 03:13:22;;;;;;;104.87;18.83;;;1.00;99.90;;;;;;2073446;28;20301;-62
2020/12/09 03:14:22;;;;;;;99.10;19.77;;;0.90;99.90;;;;;;2073334;28;20220;-61
2020/12/09 03:15:23;;;;;;;120.47;20.20;;;0.90;99.90;;;;;;2073341;28;20287;-62
2020/12/09 03:16:25;;;;;;;115.20;20.08;;;1.00;99.90;;;;;;2073276;28;20235;-62
2020/12/09 03:17:26;;;;;;;135.13;22.10;;;1.00;99.90;;;;;;2073412;28;20178;-62
2020/12/09 03:18:26;;;;;;;134.93;22.63;;;1.00;99.90;;;;;;2073071;28;20205;-62
2020/12/09 03:19:27;;;;;;;70.03;18.00;;;1.00;99.90;;;;;;2073685;28;20276;-61
2020/12/09 03:20:28;;;;;;;119.43;21.70;;;1.00;99.90;;;;;;2073202;28;20196;-62
2020/12/09 03:21:30;;;;;;;129.40;22.63;;;1.00;99.90;;;;;;2073082;28;20186;-61
2020/12/09 03:22:31;;;;;;;90.18;21.10;;;1.00;99.90;;;;;;2073093;28;20656;-61
2020/12/09 03:23:36;;;;;;;84.93;18.40;;;1.00;99.90;;;;;;2073074;28;20177;-61
2020/12/09 03:24:37;;;;;;;110.10;21.33;;;1.00;99.90;;;;;;2072990;28;20201;-61
2020/12/09 03:25:37;;;;;;;68.20;15.97;;;1.00;99.90;;;;;;2073320;28;20622;-61
2020/12/09 03:26:38;;;;;;;104.10;18.70;;;1.00;99.90;;;;;;2073194;28;20212;-62
2020/12/09 03:27:39;;;;;;;94.33;17.93;;;1.10;99.90;;;;;;2073409;28;20181;-62
2020/12/09 03:28:39;;;;;;;94.00;18.03;;;1.10;99.90;;;;;;2073000;28;20180;-61
2020/12/09 03:29:40;;;;;;;146.57;23.90;;;1.10;99.90;;;;;;2073126;28;20208;-62
2020/12/09 03:30:41;;;;;;;82.70;18.87;;;1.10;99.90;;;;;;2073065;28;20217;-62
2020/12/09 03:31:44;;;;;;;101.13;20.03;;;1.10;99.90;;;;;;2080598;28;20180;-62
2020/12/09 03:32:44;;;;;;;113.03;20.67;;;1.10;99.90;;;;;;2080371;28;20180;-62
2020/12/09 03:33:45;;;;;;;87.17;19.47;;;1.10;99.90;;;;;;2073054;28;20185;-62
2020/12/09 03:34:46;;;;;;;126.83;22.53;;;1.00;99.90;;;;;;2071990;28;20189;-61
2020/12/09 03:35:46;;;;;;;96.70;18.90;;;1.10;99.90;;;;;;2073252;28;20181;-61
2020/12/09 03:36:47;;;;;;;85.23;17.97;;;1.10;99.90;;;;;;2073133;28;20185;-61
2020/12/09 03:37:48;;;;;;;70.57;16.37;;;1.00;99.90;;;;;;2073103;28;20356;-61
2020/12/09 03:38:48;;;;;;;49.00;13.63;;;1.10;99.90;;;;;;2073082;28;20277;-61
2020/12/09 03:39:49;;;;;;;70.10;17.23;;;1.00;99.90;;;;;;2073009;28;20185;-62
2020/12/09 03:40:50;;;;;;;56.07;15.23;;;1.00;99.90;;;;;;2072741;28;20800;-61
2020/12/09 03:41:50;;;;;;;55.00;16.47;;;1.00;99.90;;;;;;2073181;28;20185;-62
2020/12/09 03:42:51;;;;;;;74.50;17.10;;;1.00;99.90;;;;;;2073036;28;20178;-61
2020/12/09 03:43:52;;;;;;;44.17;14.50;;;1.00;99.90;;;;;;2073114;28;20177;-62
2020/12/09 03:44:52;;;;;;;55.93;15.40;;;1.00;99.90;;;;;;2072808;28;20201;-61
2020/12/09 03:45:53;;;;;;;65.33;17.67;;;1.00;99.90;;;;;;2072931;28;20219;-62
2020/12/09 03:46:59;;;;;;;59.97;16.53;;;1.00;99.90;;;;;;2073142;28;20186;-61
2020/12/09 03:47:59;;;;;;;120.47;17.40;;;1.00;99.90;;;;;;2073162;28;20174;-62
2020/12/09 03:49:00;;;;;;;104.37;20.00;;;1.10;99.90;;;;;;2073110;28;20264;-62
2020/12/09 03:50:02;;;;;;;73.67;17.77;;;1.10;99.90;;;;;;2072979;28;20202;-61
2020/12/09 03:51:03;;;;;;;84.63;17.50;;;1.10;99.90;;;;;;2072602;28;20665;-61
2020/12/09 03:52:03;;;;;;;52.43;14.70;;;1.10;99.90;;;;;;2072992;28;20224;-62
2020/12/09 03:53:04;;;;;;;49.67;14.50;;;1.00;99.90;;;;;;2073123;28;20520;-62
2020/12/09 03:54:05;;;;;;;53.90;14.37;;;1.00;99.90;;;;;;2072998;28;20692;-62
2020/12/09 03:55:05;;;;;;;47.97;14.50;;;1.00;99.90;;;;;;2072999;28;20216;-62
2020/12/09 03:56:06;;;;;;;51.83;14.17;;;1.00;99.90;;;;;;2067210;28;20276;-62
2020/12/09 03:57:07;;;;;;;46.23;16.40;;;1.00;99.90;;;;;;2071145;28;20193;-62
2020/12/09 03:58:07;;;;;;;40.73;14.23;;;1.00;99.90;;;;;;2072896;28;20227;-62
2020/12/09 03:59:08;;;;;;;38.03;13.10;;;1.00;99.90;;;;;;2072957;28;20215;-62
2020/12/09 04:00:09;;;;;;;30.90;11.67;;;1.10;99.90;;;;;;2073049;28;20196;-62
2020/12/09 04:01:09;;;;;;;37.67;13.00;;;1.00;99.90;;;;;;2072822;28;20178;-62
2020/12/09 04:02:10;;;;;;;37.33;13.00;;;1.10;99.90;;;;;;2072971;28;20644;-62
2020/12/09 04:03:11;;;;;;;38.73;12.77;;;1.00;99.90;;;;;;2072947;28;20549;-61
2020/12/09 04:04:11;;;;;;;34.30;13.30;;;1.00;99.90;;;;;;2072984;28;20190;-62
2020/12/09 04:05:12;;;;;;;38.50;12.67;;;1.00;99.90;;;;;;2072926;28;20722;-62
2020/12/09 04:06:13;;;;;;;26.13;10.40;;;1.00;99.90;;;;;;2073816;28;20221;-61
2020/12/09 04:07:14;;;;;;;34.27;11.77;;;1.10;99.90;;;;;;2074519;28;20682;-62
2020/12/09 04:08:14;;;;;;;34.73;11.80;;;1.10;99.90;;;;;;2073013;28;20259;-62
2020/12/09 04:09:15;;;;;;;30.47;11.03;;;1.10;99.90;;;;;;2072983;28;20185;-62
2020/12/09 04:10:16;;;;;;;27.77;11.00;;;1.00;99.90;;;;;;2072954;28;20214;-62
2020/12/09 04:11:17;;;;;;;21.35;9.07;;;1.00;99.90;;;;;;2072656;28;20224;-61
2020/12/09 04:12:22;;;;;;;23.87;10.47;;;1.00;99.90;;;;;;2073050;28;20280;-62
2020/12/09 04:13:23;;;;;;;20.15;9.10;;;1.00;99.90;;;;;;2072834;28;20185;-61
2020/12/09 04:14:25;;;;;;;21.30;9.20;;;1.00;99.90;;;;;;2073018;28;20189;-62
2020/12/09 04:15:26;;;;;;;17.05;8.20;;;1.00;99.90;;;;;;2072862;28;20696;-62
2020/12/09 04:16:27;;;;;;;20.60;8.70;;;1.00;99.90;;;;;;2072978;28;20205;-61
2020/12/09 04:17:27;;;;;;;16.13;7.83;;;1.00;99.90;;;;;;2072801;28;20562;-62
2020/12/09 04:18:28;;;;;;;14.93;7.43;;;1.00;99.90;;;;;;2072706;28;20282;-62
2020/12/09 04:19:29;;;;;;;16.97;7.53;;;1.10;99.90;;;;;;2072762;28;20550;-61
2020/12/09 04:20:29;;;;;;;15.00;7.23;;;1.00;99.90;;;;;;2072928;28;20191;-62
2020/12/09 04:21:30;;;;;;;13.90;6.97;;;1.00;99.90;;;;;;2072572;28;20174;-62
2020/12/09 04:22:31;;;;;;;14.50;7.50;;;1.00;99.90;;;;;;2072874;28;20224;-62
2020/12/09 04:23:32;;;;;;;14.60;6.90;;;1.00;99.90;;;;;;2072549;28;20186;-62
2020/12/09 04:24:32;;;;;;;14.23;7.47;;;1.00;99.90;;;;;;2072699;28;20193;-62
2020/12/09 04:25:33;;;;;;;17.20;8.33;;;1.00;99.90;;;;;;2072964;28;20184;-61
2020/12/09 04:26:34;;;;;;;13.60;7.43;;;0.90;99.90;;;;;;2072937;28;20181;-61
2020/12/09 04:27:35;;;;;;;17.10;7.77;;;0.90;99.90;;;;;;2072930;28;20272;-61
2020/12/09 04:28:35;;;;;;;15.77;7.37;;;1.00;99.90;;;;;;2072901;28;20663;-62
2020/12/09 04:29:36;;;;;;;13.53;7.23;;;1.00;99.90;;;;;;2080269;28;20303;-62
2020/12/09 04:30:37;;;;;;;14.90;7.13;;;1.00;99.90;;;;;;2080497;28;20267;-62
2020/12/09 04:31:38;;;;;;;13.60;6.70;;;1.00;99.90;;;;;;2072756;28;20192;-62
2020/12/09 04:32:38;;;;;;;13.87;7.10;;;1.00;99.90;;;;;;2072982;28;20181;-64
2020/12/09 04:33:53;;;;;;;14.23;6.60;;;1.00;99.90;;;;;;2080295;28;20188;-61
2020/12/09 04:34:58;;;;;;;14.65;7.00;;;1.00;99.90;;;;;;2078418;28;20776;-62
2020/12/09 04:36:02;;;;;;;14.25;7.00;;;1.00;99.90;;;;;;2072775;28;20217;-62
2020/12/09 04:37:04;;;;;;;13.00;7.15;;;1.00;99.90;;;;;;2072796;28;20185;-62
2020/12/09 04:38:05;;;;;;;14.77;6.93;;;1.00;99.90;;;;;;2072595;28;20240;-62
2020/12/09 04:39:06;;;;;;;11.38;6.07;;;1.00;99.90;;;;;;2072843;28;20185;-62
2020/12/09 04:40:07;;;;;;;12.65;6.40;;;1.00;99.90;;;;;;2079924;28;20284;-62
2020/12/09 04:41:08;;;;;;;13.75;6.50;;;1.00;99.90;;;;;;2080053;28;20184;-62
2020/12/09 04:42:09;;;;;;;15.03;6.67;;;1.00;99.90;;;;;;2072831;28;20558;-62
2020/12/09 04:43:10;;;;;;;11.93;6.50;;;1.10;99.90;;;;;;2072985;28;20177;-61
2020/12/09 04:44:11;;;;;;;12.45;6.82;;;1.10;99.90;;;;;;2072877;28;20190;-62
2020/12/09 04:45:12;;;;;;;10.98;5.88;;;1.10;99.90;;;;;;2072734;28;20208;-62
2020/12/09 04:46:13;;;;;;;9.90;6.10;;;1.10;99.90;;;;;;2072462;28;20174;-62
2020/12/09 04:47:25;;;;;;;12.02;6.00;;;1.10;99.90;;;;;;2072679;28;20598;-62
2020/12/09 04:48:28;;;;;;;12.07;5.97;;;1.10;99.90;;;;;;2072617;28;20700;-62
2020/12/09 04:49:40;;;;;;;11.95;6.78;;;1.10;99.90;;;;;;2072712;28;20215;-62
2020/12/09 04:51:24;;;;;;;9.65;5.55;;;1.00;99.90;;;;;;2072777;28;20340;-62
2020/12/09 04:53:01;;;;;;;11.52;6.22;;;1.00;99.90;;;;;;2072662;28;20189;-62
2020/12/09 04:54:02;;;;;;;9.70;4.88;;;1.00;99.90;;;;;;2072554;28;20228;-62
2020/12/09 04:55:09;;;;;;;9.77;5.00;;;1.00;99.90;;;;;;2072594;28;20696;-62
2020/12/09 04:56:10;;;;;;;10.88;5.50;;;1.00;99.90;;;;;;2071962;28;20178;-62
2020/12/09 04:57:36;;;;;;;9.53;5.43;;;1.00;99.90;;;;;;2071701;28;20559;-62
2020/12/09 04:58:41;;;;;;;11.65;5.45;;;1.00;99.90;;;;;;2072458;28;20197;-62
2020/12/09 04:59:42;;;;;;;10.02;5.20;;;1.00;99.90;;;;;;2072611;28;20275;-62
2020/12/09 05:00:45;;;;;;;10.07;5.55;;;1.00;99.90;;;;;;2079782;28;20173;-62
2020/12/09 05:02:15;;;;;;;9.30;5.43;;;1.10;99.90;;;;;;2071742;28;20181;-62
2020/12/09 05:03:18;;;;;;;13.30;6.38;;;1.00;99.90;;;;;;2055411;28;20189;-62
2020/12/09 05:04:25;;;;;;;10.57;5.57;;;1.10;99.90;;;;;;2072441;28;20638;-62
2020/12/09 05:05:26;;;;;;;9.00;4.93;;;1.00;99.90;;;;;;2072417;28;20208;-63
2020/12/09 05:06:28;;;;;;;9.43;5.67;;;1.00;99.90;;;;;;2072374;28;20602;-62
2020/12/09 05:07:35;;;;;;;10.25;5.90;;;1.00;99.90;;;;;;2071420;28;20177;-62
2020/12/09 05:08:38;;;;;;;9.85;5.65;;;1.00;99.90;;;;;;2071777;28;20173;-63
2020/12/09 05:09:45;;;;;;;8.98;5.20;;;1.00;99.90;;;;;;2072383;28;20208;-62
2020/12/09 05:10:53;;;;;;;11.38;6.28;;;1.00;99.90;;;;;;2072128;28;20181;-63
2020/12/09 05:12:04;;;;;;;9.75;5.40;;;1.00;99.90;;;;;;2072389;28;20205;-63
2020/12/09 05:13:06;;;;;;;10.32;5.85;;;1.00;99.90;;;;;;2072092;28;20174;-62
2020/12/09 05:14:10;;;;;;;9.43;5.00;;;1.10;99.90;;;;;;2071652;28;20216;-63
2020/12/09 05:15:17;;;;;;;9.93;5.30;;;1.00;99.90;;;;;;2063712;28;20244;-63
2020/12/09 05:16:22;;;;;;;8.55;5.05;;;1.00;99.90;;;;;;2071569;28;20208;-62
2020/12/09 05:17:25;;;;;;;10.82;5.70;;;1.10;99.90;;;;;;2072125;28;20228;-62
2020/12/09 05:18:42;;;;;;;10.25;5.25;;;1.10;99.90;;;;;;2071362;28;20668;-63
2020/12/09 05:19:48;;;;;;;9.77;5.57;;;1.00;99.90;;;;;;2071759;28;20177;-62